createdAt,value
2022-10-18T00:01:05.874Z,23.02
2022-10-18T00:06:10.755Z,20.33
2022-10-18T00:11:13.502Z,22.73
2022-10-18T00:16:17.916Z,22.55
2022-10-18T00:21:24.095Z,23.23
2022-10-18T00:26:28.724Z,27.05
2022-10-18T00:31:33.649Z,23.30
2022-10-18T00:36:37.830Z,27.20
2022-10-18T00:41:40.587Z,24.58
2022-10-18T00:46:45.679Z,24.67
2022-10-18T00:51:52.830Z,25.00
2022-10-18T00:56:55.718Z,22.83
2022-10-18T01:01:58.603Z,25.70
2022-10-18T01:07:11.558Z,28.27
2022-10-18T01:12:23.272Z,29.33
2022-10-18T01:17:31.290Z,30.20
2022-10-18T01:22:40.903Z,36.75
2022-10-18T01:27:49.755Z,32.92
2022-10-18T01:32:57.122Z,37.38
2022-10-18T01:38:04.195Z,34.47
2022-10-18T01:43:09.310Z,31.15
2022-10-18T01:48:15.105Z,32.33
2022-10-18T01:53:29.971Z,40.65
2022-10-18T01:58:38.418Z,35.85
2022-10-18T02:03:47.503Z,36.05
2022-10-18T02:08:56.248Z,35.20
2022-10-18T02:14:04.408Z,36.63
2022-10-18T02:19:14.013Z,33.28
2022-10-18T02:24:18.574Z,35.08
2022-10-18T02:29:21.516Z,41.00
2022-10-18T02:34:30.610Z,38.28
2022-10-18T02:39:36.438Z,37.42
2022-10-18T02:44:39.625Z,37.28
2022-10-18T02:49:43.751Z,35.20
2022-10-18T02:54:46.605Z,39.38
2022-10-18T02:59:49.418Z,40.45
2022-10-18T03:04:53.534Z,38.47
2022-10-18T03:09:56.309Z,35.33
2022-10-18T03:14:59.105Z,37.38
2022-10-18T03:20:03.232Z,33.80
2022-10-18T03:25:06.744Z,39.55
2022-10-18T03:30:13.390Z,35.80
2022-10-18T03:35:17.681Z,41.00
2022-10-18T03:40:20.741Z,42.38
2022-10-18T03:45:27.452Z,46.30
2022-10-18T03:50:34.573Z,40.40
2022-10-18T03:55:38.494Z,36.80
2022-10-18T04:00:41.322Z,45.60
2022-10-18T04:05:45.789Z,45.42
2022-10-18T04:10:48.642Z,47.67
2022-10-18T04:15:51.400Z,46.90
2022-10-18T04:20:55.546Z,47.45
2022-10-18T04:25:58.684Z,49.10
2022-10-18T04:31:01.730Z,46.63
2022-10-18T04:36:06.278Z,48.97
2022-10-18T04:41:09.078Z,46.33
2022-10-18T04:46:11.966Z,48.90
2022-10-18T04:51:16.157Z,50.95
2022-10-18T04:56:19.416Z,51.10
2022-10-18T05:01:22.251Z,53.67
2022-10-18T05:06:26.508Z,59.85
2022-10-18T05:11:29.343Z,60.05
2022-10-18T05:16:33.043Z,45.88
2022-10-18T05:21:37.317Z,42.03
2022-10-18T05:26:40.371Z,46.35
2022-10-18T05:31:43.307Z,45.95
2022-10-18T05:36:49.432Z,45.60
2022-10-18T05:41:52.251Z,48.15
2022-10-18T05:46:55.063Z,46.53
2022-10-18T05:51:59.161Z,43.85
2022-10-18T05:57:01.968Z,42.75
2022-10-18T06:02:04.759Z,48.88
2022-10-18T06:07:11.258Z,91.57
2022-10-18T06:12:14.072Z,83.07
2022-10-18T06:17:16.864Z,68.47
2022-10-18T06:22:21.203Z,49.15
2022-10-18T06:27:23.948Z,71.78
2022-10-18T06:32:26.706Z,53.55
2022-10-18T06:37:31.752Z,100.70
2022-10-18T06:42:34.914Z,35.60
2022-10-18T06:47:37.879Z,61.83
2022-10-18T06:52:42.431Z,34.70
2022-10-18T06:57:45.638Z,42.13
2022-10-18T07:02:48.599Z,186.90
2022-10-18T07:07:55.757Z,47.70
2022-10-18T07:13:26.992Z,34.90
2022-10-18T07:23:45.941Z,32.80
2022-10-18T07:28:52.281Z,30.48
2022-10-18T07:33:55.343Z,27.80
2022-10-18T07:39:00.678Z,28.33
2022-10-18T07:44:04.861Z,29.35
2022-10-18T07:49:07.719Z,26.83
2022-10-18T07:54:12.166Z,27.13
2022-10-18T07:59:15.063Z,29.55
2022-10-18T08:04:17.959Z,28.98
2022-10-18T08:09:22.116Z,27.70
2022-10-18T08:14:25.135Z,33.25
2022-10-18T08:19:27.869Z,41.00
2022-10-18T08:24:32.105Z,38.58
2022-10-18T08:29:34.950Z,29.77
2022-10-18T08:39:42.830Z,53.70
2022-10-18T08:44:47.092Z,22.00
2022-10-18T08:49:53.016Z,36.03
2022-10-18T08:55:03.792Z,25.75
2022-10-18T09:00:16.854Z,24.00
2022-10-18T09:05:29.131Z,25.40
2022-10-18T09:10:44.640Z,30.45
2022-10-18T09:15:56.167Z,28.20
2022-10-18T09:21:00.639Z,118.85
2022-10-18T09:26:11.723Z,37.53
2022-10-18T09:31:20.074Z,27.45
2022-10-18T09:36:25.384Z,25.25
2022-10-18T09:41:35.677Z,28.98
2022-10-18T09:46:41.911Z,23.60
2022-10-18T09:51:46.037Z,25.75
2022-10-18T09:56:53.267Z,23.50
2022-10-18T10:01:56.482Z,42.05
2022-10-18T10:07:02.324Z,18.77
2022-10-18T10:12:07.824Z,18.35
2022-10-18T10:17:23.650Z,21.35
2022-10-18T10:22:33.244Z,20.08
2022-10-18T10:27:43.491Z,23.23
2022-10-18T10:32:49.146Z,19.92
2022-10-18T10:37:53.390Z,24.38
2022-10-18T10:43:18.170Z,24.15
2022-10-18T10:48:33.515Z,22.98
2022-10-18T10:53:41.228Z,18.55
2022-10-18T10:58:45.847Z,19.13
2022-10-18T11:03:50.743Z,15.55
2022-10-18T11:08:57.285Z,19.95
2022-10-18T11:14:30.288Z,16.48
2022-10-18T11:19:40.116Z,25.73
2022-10-18T11:24:43.336Z,17.77
2022-10-18T11:30:01.844Z,10.90
2022-10-18T11:40:33.604Z,13.23
2022-10-18T11:45:47.758Z,16.77
2022-10-18T11:50:59.752Z,14.27
2022-10-18T11:56:14.855Z,36.67
2022-10-18T12:01:28.707Z,13.80
2022-10-18T12:06:36.042Z,12.05
2022-10-18T12:11:47.184Z,20.15
2022-10-18T12:17:06.779Z,12.82
2022-10-18T12:22:21.829Z,20.05
2022-10-18T12:27:33.866Z,14.82
2022-10-18T12:32:38.819Z,9.80
2022-10-18T12:38:04.510Z,8.52
2022-10-18T12:43:18.902Z,8.73
2022-10-18T12:48:32.796Z,6.32
2022-10-18T12:53:36.473Z,14.10
2022-10-18T12:58:39.176Z,8.25
2022-10-18T13:03:54.048Z,13.05
2022-10-18T13:09:20.771Z,12.05
2022-10-18T13:15:07.066Z,11.77
2022-10-18T13:20:27.326Z,9.13
2022-10-18T13:25:37.608Z,6.55
2022-10-18T13:30:48.842Z,9.27
2022-10-18T13:35:55.991Z,5.90
2022-10-18T13:41:06.808Z,10.90
2022-10-18T13:46:09.773Z,8.02
2022-10-18T13:51:36.440Z,8.30
2022-10-18T13:56:57.488Z,10.77
2022-10-18T14:02:50.646Z,7.40
2022-10-18T14:08:02.553Z,8.50
2022-10-18T14:13:14.876Z,13.60
2022-10-18T14:18:23.074Z,9.07
2022-10-18T14:28:54.948Z,8.55
2022-10-18T14:33:57.881Z,7.88
2022-10-18T14:39:05.209Z,8.18
2022-10-18T14:44:19.428Z,9.50
2022-10-18T14:49:22.898Z,8.65
2022-10-18T14:54:32.318Z,14.05
2022-10-18T14:59:45.972Z,8.35
2022-10-18T15:04:56.909Z,10.68
2022-10-18T15:10:03.990Z,9.32
2022-10-18T15:15:09.084Z,13.25
2022-10-18T15:20:21.417Z,10.52
2022-10-18T15:25:31.833Z,14.40
2022-10-18T15:30:40.998Z,8.68
2022-10-18T15:35:43.764Z,7.50
2022-10-18T15:40:48.550Z,9.23
2022-10-18T15:45:53.097Z,6.32
2022-10-18T15:50:57.536Z,13.25
2022-10-18T15:56:03.676Z,8.77
2022-10-18T16:01:09.097Z,6.68
2022-10-18T16:06:15.908Z,14.65
2022-10-18T16:11:24.745Z,15.57
2022-10-18T16:16:29.611Z,9.02
2022-10-18T16:21:34.361Z,13.25
2022-10-18T16:26:39.127Z,7.72
2022-10-18T16:31:42.416Z,9.68
2022-10-18T16:36:45.390Z,7.85
2022-10-18T16:41:49.846Z,9.20
2022-10-18T16:46:54.169Z,9.32
2022-10-18T16:52:00.039Z,13.55
2022-10-18T16:57:04.615Z,10.20
2022-10-18T17:02:09.278Z,6.90
2022-10-18T17:07:23.503Z,11.38
2022-10-18T17:12:30.033Z,7.70
2022-10-18T17:17:33.510Z,12.00
2022-10-18T17:22:36.761Z,10.48
2022-10-18T17:27:45.037Z,11.23
2022-10-18T17:37:53.461Z,12.10
2022-10-18T17:42:57.934Z,18.13
2022-10-18T17:48:04.085Z,7.72
2022-10-18T17:53:07.180Z,9.20
2022-10-18T17:58:11.646Z,8.60
2022-10-18T18:03:17.809Z,10.18
2022-10-18T18:08:20.769Z,8.93
2022-10-18T18:13:25.055Z,13.15
2022-10-18T18:18:27.874Z,6.07
2022-10-18T18:23:30.766Z,8.65
2022-10-18T18:28:36.016Z,6.03
2022-10-18T18:33:39.367Z,6.13
2022-10-18T18:38:43.500Z,5.28
2022-10-18T18:43:58.997Z,6.00
2022-10-18T18:49:06.618Z,6.57
2022-10-18T18:54:22.310Z,4.70
2022-10-18T18:59:26.575Z,6.47
2022-10-18T19:04:35.378Z,6.38
2022-10-18T19:10:29.841Z,8.60
2022-10-18T19:15:46.089Z,10.52
2022-10-18T19:20:49.239Z,7.18
2022-10-18T19:25:52.187Z,10.90
2022-10-18T19:30:58.314Z,9.65
2022-10-18T19:36:01.318Z,8.70
2022-10-18T19:41:04.147Z,6.25
2022-10-18T19:46:08.460Z,6.72
2022-10-18T19:51:17.290Z,9.40
2022-10-18T19:56:25.418Z,8.95
2022-10-18T20:01:30.471Z,6.75
2022-10-18T20:06:33.731Z,7.65
2022-10-18T20:11:37.404Z,4.45
2022-10-18T20:16:41.611Z,6.13
2022-10-18T20:21:44.476Z,7.25
2022-10-18T20:26:47.419Z,5.57
2022-10-18T20:31:55.518Z,8.70
2022-10-18T20:36:58.353Z,7.40
2022-10-18T20:42:01.257Z,7.78
2022-10-18T20:47:05.508Z,10.70
2022-10-18T20:52:08.656Z,8.35
2022-10-18T20:57:11.494Z,7.32
2022-10-18T21:02:15.977Z,10.57
2022-10-18T21:07:18.861Z,12.35
2022-10-18T21:12:21.703Z,8.93
2022-10-18T21:17:25.935Z,4.70
2022-10-18T21:22:28.736Z,8.68
2022-10-18T21:27:31.488Z,7.10
2022-10-18T21:32:36.117Z,6.28
2022-10-18T21:37:39.108Z,6.03
2022-10-18T21:42:41.912Z,10.00
2022-10-18T21:47:47.600Z,8.95
2022-10-18T21:52:50.651Z,7.03
2022-10-18T21:57:53.467Z,13.35
2022-10-18T22:03:08.720Z,6.97
2022-10-18T22:08:11.513Z,7.35
2022-10-18T22:13:14.312Z,8.38
2022-10-18T22:18:18.708Z,6.00
2022-10-18T22:23:21.873Z,6.60
2022-10-18T22:28:24.893Z,6.63
2022-10-18T22:33:29.860Z,7.75
2022-10-18T22:38:33.934Z,7.18
2022-10-18T22:43:37.632Z,4.93
2022-10-18T22:48:42.502Z,6.13
2022-10-18T22:53:45.984Z,7.35
2022-10-18T22:58:49.080Z,4.68
2022-10-18T23:03:57.330Z,6.95
2022-10-18T23:09:01.807Z,6.22
2022-10-18T23:14:06.108Z,11.07
2022-10-18T23:19:15.748Z,7.63
2022-10-18T23:24:18.604Z,7.35
2022-10-18T23:29:21.420Z,6.15
2022-10-18T23:34:25.594Z,5.28
2022-10-18T23:39:28.359Z,6.32
2022-10-18T23:44:31.285Z,9.75
2022-10-18T23:49:35.441Z,7.35
2022-10-18T23:54:38.408Z,7.07
2022-10-18T23:59:41.173Z,8.13
